Time;durP1;ratioP1;P1;durP2;ratioP2;P2;SDS_P1;SDS_P2;PMS_P1;PMS_P2;Temp;Humidity;BMP_temperature;BMP_pressure;BME280_temperature;BME280_humidity;BME280_pressure;Samples;Min_cycle;Max_cycle;Signal;HPM_P1;HPM_P2
2022/03/29 00:03:00;;;;;;;22.33;13.67;;;;;;;6.64;100.00;96341.53;10369072;28;20762;-56
2022/03/29 00:08:01;;;;;;;23.47;13.17;;;;;;;6.22;100.00;96320.09;10377069;28;20240;-57
2022/03/29 00:13:01;;;;;;;30.17;16.73;;;;;;;5.96;100.00;96317.22;10376317;28;20228;-52
2022/03/29 00:18:02;;;;;;;39.47;18.83;;;;;;;6.03;100.00;96310.53;10376816;28;20300;-51
2022/03/29 00:23:03;;;;;;;40.40;15.97;;;;;;;5.74;100.00;96312.28;10376018;28;20205;-55
2022/03/29 00:28:03;;;;;;;36.30;18.30;;;;;;;5.39;100.00;96313.59;10375352;28;20195;-51
2022/03/29 00:33:04;;;;;;;47.93;22.20;;;;;;;5.25;100.00;96309.63;10376220;28;20312;-54
2022/03/29 00:38:04;;;;;;;48.37;21.00;;;;;;;4.85;100.00;96308.66;10375803;28;20195;-53
2022/03/29 00:43:05;;;;;;;45.63;21.23;;;;;;;4.56;100.00;96309.34;10375425;28;20250;-51
2022/03/29 00:48:08;;;;;;;44.30;20.90;;;;;;;4.53;100.00;96306.22;10376505;28;20258;-51
2022/03/29 00:53:09;;;;;;;42.93;19.77;;;;;;;4.51;100.00;96303.75;10375372;28;20272;-50
2022/03/29 00:58:09;;;;;;;40.37;19.10;;;;;;;4.55;100.00;96280.94;10376472;28;20321;-50
2022/03/29 01:03:11;;;;;;;41.40;19.97;;;;;;;4.56;100.00;96282.59;10375045;28;20201;-50
2022/03/29 01:08:11;;;;;;;44.07;21.37;;;;;;;4.47;100.00;96269.47;10375980;28;20185;-51
2022/03/29 01:13:12;;;;;;;41.70;20.30;;;;;;;4.36;100.00;96263.53;10375155;28;20225;-56
2022/03/29 01:18:13;;;;;;;57.87;23.33;;;;;;;4.33;100.00;96258.59;10373221;28;20196;-56
2022/03/29 01:23:13;;;;;;;50.57;23.13;;;;;;;4.33;100.00;96251.66;10372619;28;20205;-56
2022/03/29 01:28:15;;;;;;;45.03;21.17;;;;;;;4.20;100.00;96248.47;10373066;28;20196;-56
2022/03/29 01:33:15;;;;;;;49.87;21.47;;;;;;;4.08;100.00;96250.28;10373244;28;20240;-57
2022/03/29 01:38:16;;;;;;;40.97;20.30;;;;;;;3.93;100.00;96247.19;10373473;28;20197;-53
2022/03/29 01:43:17;;;;;;;65.57;23.83;;;;;;;3.68;100.00;96240.63;10372217;28;20237;-50
2022/03/29 01:48:17;;;;;;;48.33;21.77;;;;;;;3.61;100.00;96232.50;10373737;28;20197;-56
2022/03/29 01:53:23;;;;;;;48.30;20.97;;;;;;;3.59;100.00;96223.25;10372740;28;20251;-50
2022/03/29 01:58:24;;;;;;;62.03;27.17;;;;;;;3.47;100.00;96218.09;10372742;28;20280;-54
2022/03/29 02:03:25;;;;;;;48.97;23.37;;;;;;;3.49;100.00;96211.06;10371774;28;20217;-51
2022/03/29 02:08:26;;;;;;;62.33;28.37;;;;;;;3.41;100.00;96216.00;10372106;28;20562;-53
2022/03/29 02:13:27;;;;;;;42.60;21.50;;;;;;;3.44;100.00;96209.78;10371887;28;20746;-53
2022/03/29 02:18:27;;;;;;;57.40;26.80;;;;;;;3.41;100.00;96200.47;10371157;28;20196;-51
2022/03/29 02:23:27;;;;;;;46.23;22.17;;;;;;;3.41;100.00;96197.88;10371369;28;20217;-51
2022/03/29 02:28:28;;;;;;;53.90;22.70;;;;;;;3.37;100.00;96197.31;10370032;28;20268;-50
2022/03/29 02:33:28;;;;;;;44.87;20.93;;;;;;;3.31;100.00;96195.25;10370665;28;20228;-51
2022/03/29 02:38:28;;;;;;;46.07;20.80;;;;;;;3.10;100.00;96181.44;10371348;28;20300;-51
2022/03/29 02:43:29;;;;;;;51.30;22.27;;;;;;;3.16;100.00;96180.94;10370329;28;20275;-53
2022/03/29 02:48:30;;;;;;;46.67;19.77;;;;;;;3.19;100.00;96184.09;10369914;28;20197;-50
2022/03/29 02:53:30;;;;;;;55.07;22.13;;;;;;;3.16;100.00;96174.00;10364000;28;20225;-51
2022/03/29 02:58:31;;;;;;;54.80;23.70;;;;;;;3.13;100.00;96181.19;10369660;28;20224;-53
2022/03/29 03:03:31;;;;;;;48.10;20.33;;;;;;;3.11;100.00;96176.13;10369582;28;20221;-52
2022/03/29 03:08:32;;;;;;;49.33;20.40;;;;;;;3.01;100.00;96173.44;10370356;28;20193;-57
2022/03/29 03:13:33;;;;;;;46.40;19.07;;;;;;;3.03;100.00;96173.31;10369498;28;20312;-53
2022/03/29 03:18:33;;;;;;;42.10;19.17;;;;;;;2.91;100.00;96167.41;10370108;28;20278;-54
2022/03/29 03:23:34;;;;;;;42.17;19.60;;;;;;;2.83;100.00;96167.16;10369001;28;20216;-51
2022/03/29 03:28:34;;;;;;;46.37;20.07;;;;;;;2.70;100.00;96167.31;10368819;28;20191;-55
2022/03/29 03:33:35;;;;;;;50.77;21.37;;;;;;;2.64;100.00;96170.41;10368645;28;20217;-51
2022/03/29 03:38:35;;;;;;;46.03;19.70;;;;;;;2.66;100.00;96164.16;10368610;28;20264;-52
2022/03/29 03:43:35;;;;;;;51.20;18.67;;;;;;;2.68;100.00;96145.94;10368122;28;20271;-55
2022/03/29 03:48:36;;;;;;;44.33;21.83;;;;;;;2.58;100.00;96151.00;10369716;28;20676;-51
2022/03/29 03:53:36;;;;;;;49.23;21.13;;;;;;;2.62;100.00;96142.06;10369690;28;20595;-50
2022/03/29 03:58:37;;;;;;;43.97;19.67;;;;;;;2.63;100.00;96143.72;10368409;28;20243;-50
2022/03/29 04:03:37;;;;;;;50.53;22.37;;;;;;;2.41;100.00;96154.91;10369163;28;20209;-51
2022/03/29 04:08:38;;;;;;;52.67;21.93;;;;;;;2.31;100.00;96144.47;10369905;28;20193;-52
2022/03/29 04:13:38;;;;;;;52.73;21.87;;;;;;;2.21;100.00;96148.72;10368673;28;20241;-55
2022/03/29 04:18:39;;;;;;;53.03;23.33;;;;;;;2.03;100.00;96142.38;10369508;28;20197;-52
2022/03/29 04:23:39;;;;;;;62.27;25.20;;;;;;;2.00;100.00;96143.44;10368547;28;20224;-52
2022/03/29 04:28:39;;;;;;;60.27;24.17;;;;;;;1.98;100.00;96141.91;10369323;28;20209;-54
2022/03/29 04:33:40;;;;;;;48.90;22.40;;;;;;;2.10;100.00;96151.31;10369119;28;20229;-51
2022/03/29 04:38:40;;;;;;;44.63;20.70;;;;;;;2.00;100.00;96140.03;10369277;28;20202;-55
2022/03/29 04:43:41;;;;;;;48.23;20.30;;;;;;;2.06;100.00;96140.38;10369034;28;20240;-57
2022/03/29 04:48:41;;;;;;;48.33;21.03;;;;;;;1.97;100.00;96138.50;10369391;28;20203;-56
2022/03/29 04:53:41;;;;;;;48.17;20.13;;;;;;;2.02;100.00;96131.22;10376571;28;20218;-57
2022/03/29 04:58:42;;;;;;;45.77;20.43;;;;;;;1.99;100.00;96135.78;10376705;28;20258;-57
2022/03/29 05:03:42;;;;;;;44.03;20.80;;;;;;;1.89;100.00;96128.75;10375819;28;20244;-56
2022/03/29 05:08:42;;;;;;;49.03;21.67;;;;;;;1.84;100.00;96122.28;10376189;28;20254;-54
2022/03/29 05:13:43;;;;;;;43.27;21.40;;;;;;;1.95;100.00;96119.72;10375248;28;20225;-59
2022/03/29 05:18:44;;;;;;;50.43;21.17;;;;;;;1.94;100.00;96123.22;10376084;28;20229;-59
2022/03/29 05:23:45;;;;;;;49.67;20.67;;;;;;;1.95;100.00;96127.47;10375068;28;20221;-57
2022/03/29 05:28:45;;;;;;;43.63;20.07;;;;;;;2.08;100.00;96122.16;10375189;28;20537;-52
2022/03/29 05:33:45;;;;;;;39.53;20.27;;;;;;;2.24;100.00;96132.97;10374800;28;20229;-53
2022/03/29 05:38:51;;;;;;;47.57;20.03;;;;;;;2.43;100.00;96134.94;10374921;28;20225;-58
2022/03/29 05:43:51;;;;;;;46.50;20.07;;;;;;;2.74;100.00;96155.81;10374397;28;20314;-59
2022/03/29 05:48:53;;;;;;;40.63;19.00;;;;;;;2.91;100.00;96154.47;10374380;28;20603;-58
2022/03/29 05:53:55;;;;;;;42.43;19.37;;;;;;;3.03;100.00;96150.03;10373911;28;20363;-58
2022/03/29 05:58:55;;;;;;;43.70;20.53;;;;;;;3.26;100.00;96153.34;10373079;28;20199;-58
2022/03/29 06:03:55;;;;;;;65.50;28.93;;;;;;;3.53;100.00;96152.88;10372681;28;20660;-56
2022/03/29 06:08:56;;;;;;;64.03;29.83;;;;;;;3.74;100.00;96150.25;10373594;28;20298;-58
2022/03/29 06:13:56;;;;;;;61.03;28.20;;;;;;;4.04;100.00;96153.00;10364286;28;20217;-53
2022/03/29 06:18:56;;;;;;;56.43;27.13;;;;;;;4.08;100.00;96154.38;10373681;28;20200;-58
2022/03/29 06:23:57;;;;;;;63.30;28.27;;;;;;;4.33;100.00;96162.66;10372777;28;20292;-58
2022/03/29 06:28:58;;;;;;;60.03;27.80;;;;;;;4.11;100.00;96162.72;10372752;28;20204;-55
2022/03/29 06:33:59;;;;;;;58.87;26.93;;;;;;;4.46;100.00;96164.06;10372467;28;20739;-57
2022/03/29 06:38:59;;;;;;;62.13;27.43;;;;;;;4.58;100.00;96166.56;10372697;28;20197;-53
2022/03/29 06:43:59;;;;;;;68.57;27.63;;;;;;;4.75;100.00;96150.34;10371979;28;20283;-55
2022/03/29 06:49:02;;;;;;;58.23;26.87;;;;;;;4.99;100.00;96152.56;10372293;28;20207;-57
2022/03/29 06:54:03;;;;;;;67.60;27.43;;;;;;;4.97;100.00;96144.09;10371664;28;20236;-55
2022/03/29 06:59:04;;;;;;;63.17;27.27;;;;;;;5.10;100.00;96150.78;10364236;28;20271;-56
2022/03/29 07:04:07;;;;;;;65.47;28.10;;;;;;;5.07;100.00;96151.06;10364149;28;20831;-59
2022/03/29 07:14:26;;;;;;;58.50;26.67;;;;;;;5.22;100.00;96146.28;10368282;28;20224;-54
2022/03/29 07:19:27;;;;;;;59.17;27.07;;;;;;;5.08;100.00;96152.72;10369406;28;20189;-59
2022/03/29 07:24:27;;;;;;;66.00;30.20;;;;;;;4.92;100.00;96143.69;10368104;28;20300;-58
2022/03/29 07:29:28;;;;;;;66.43;29.27;;;;;;;5.31;100.00;96145.47;10368993;28;20280;-56
2022/03/29 07:34:29;;;;;;;63.97;29.10;;;;;;;5.20;100.00;96148.22;10366900;28;20224;-57
2022/03/29 07:39:30;;;;;;;72.10;31.13;;;;;;;5.18;100.00;96151.75;10334646;28;20283;-57
2022/03/29 07:44:30;;;;;;;74.27;32.27;;;;;;;5.03;100.00;96147.94;10344620;28;20235;-57
2022/03/29 07:49:30;;;;;;;67.57;32.80;;;;;;;5.13;100.00;96155.72;10346992;28;20284;-59
2022/03/29 07:54:31;;;;;;;69.23;31.67;;;;;;;5.29;100.00;96158.59;10346737;28;20221;-56
2022/03/29 07:59:31;;;;;;;65.30;31.53;;;;;;;5.42;100.00;96157.47;10362999;28;20193;-58
2022/03/29 08:04:32;;;;;;;53.53;26.50;;;;;;;5.80;100.00;96153.19;10368022;28;20201;-55
2022/03/29 08:09:33;;;;;;;71.43;30.00;;;;;;;6.00;100.00;96156.56;10342924;28;20673;-59
2022/03/29 08:14:33;;;;;;;58.13;30.13;;;;;;;6.10;100.00;96144.38;10338739;28;20355;-54
2022/03/29 08:19:33;;;;;;;58.77;28.37;;;;;;;5.92;100.00;96148.66;10364125;28;20620;-56
2022/03/29 08:24:34;;;;;;;64.30;30.83;;;;;;;5.65;100.00;96142.41;10362894;28;20212;-57
2022/03/29 08:29:36;;;;;;;70.57;29.93;;;;;;;5.59;100.00;96150.75;10370443;28;20204;-58
2022/03/29 08:34:36;;;;;;;75.97;31.03;;;;;;;5.36;100.00;96131.13;10371532;28;20700;-57
2022/03/29 08:39:37;;;;;;;81.40;33.23;;;;;;;5.15;100.00;96140.84;10370709;28;20193;-57
2022/03/29 08:44:38;;;;;;;67.80;30.13;;;;;;;5.45;100.00;96141.63;10370056;28;20302;-58
2022/03/29 08:49:39;;;;;;;65.93;29.60;;;;;;;6.00;100.00;96138.38;10370481;28;20189;-58
2022/03/29 08:54:39;;;;;;;63.30;27.07;;;;;;;6.35;100.00;96129.88;10369734;28;20247;-59
2022/03/29 08:59:41;;;;;;;52.00;25.60;;;;;;;6.85;100.00;96117.41;10370925;28;20308;-59
2022/03/29 09:04:42;;;;;;;54.67;28.83;;;;;;;6.40;100.00;96111.22;10357993;28;20521;-59
2022/03/29 09:09:44;;;;;;;58.50;27.97;;;;;;;6.91;100.00;96103.81;10362693;28;20267;-59
2022/03/29 09:15:00;;;;;;;62.13;28.57;;;;;;;7.20;100.00;96107.94;10366934;28;20221;-60
2022/03/29 09:20:05;;;;;;;44.50;24.13;;;;;;;7.38;99.38;96081.88;10370276;28;20682;-59
2022/03/29 09:25:06;;;;;;;56.07;27.77;;;;;;;8.22;94.58;96062.09;10368428;28;20205;-59
2022/03/29 09:30:11;;;;;;;53.90;26.13;;;;;;;8.72;91.77;96057.88;10370718;28;20320;-58
2022/03/29 09:35:15;;;;;;;53.73;26.93;;;;;;;8.71;88.17;96053.63;10368001;28;20233;-55
2022/03/29 09:40:16;;;;;;;52.23;24.47;;;;;;;9.31;86.52;96031.59;10353927;28;20198;-59
2022/03/29 09:45:44;;;;;;;48.80;24.83;;;;;;;10.23;81.29;95997.13;10342048;28;20270;-60
2022/03/29 09:50:44;;;;;;;55.63;28.00;;;;;;;10.70;80.14;96001.44;10341957;28;20274;-58
2022/03/29 09:55:58;;;;;;;56.93;27.87;;;;;;;11.66;74.40;95930.06;10344148;28;20213;-60
2022/03/29 10:00:58;;;;;;;57.92;30.10;;;;;;;12.25;70.94;95910.78;10351363;28;20652;-57
2022/03/29 10:06:03;;;;;;;56.78;31.95;;;;;;;12.03;69.60;95903.88;10366295;28;20194;-62
2022/03/29 10:11:04;;;;;;;60.53;32.28;;;;;;;11.68;69.08;95901.03;10349771;28;20196;-59
2022/03/29 10:16:04;;;;;;;67.57;35.47;;;;;;;12.18;68.30;95888.09;10337365;28;20224;-60
2022/03/29 10:21:05;;;;;;;64.85;34.85;;;;;;;11.91;66.47;95853.66;10327884;28;20776;-60
2022/03/29 10:26:07;;;;;;;66.50;35.53;;;;;;;10.91;72.80;95955.44;10328765;28;20208;-61
2022/03/29 10:31:33;;;;;;;75.07;37.70;;;;;;;9.37;76.74;96003.97;10366416;28;20204;-61
2022/03/29 10:36:33;;;;;;;71.50;34.07;;;;;;;9.41;74.74;95948.56;10368084;28;20205;-61
2022/03/29 10:41:43;;;;;;;69.93;34.23;;;;;;;9.44;78.38;95995.28;10367574;28;20241;-61
2022/03/29 10:46:46;;;;;;;70.67;34.63;;;;;;;9.70;74.82;95934.09;10367348;28;20217;-60
2022/03/29 10:51:51;;;;;;;70.47;33.47;;;;;;;10.48;72.70;95894.88;10366766;28;20231;-60
2022/03/29 10:56:57;;;;;;;59.38;32.83;;;;;;;11.80;69.79;95864.63;10366114;28;20197;-60
2022/03/29 11:02:06;;;;;;;65.85;33.38;;;;;;;11.91;69.22;95866.75;10362986;28;20197;-59
2022/03/29 11:07:06;;;;;;;60.03;31.92;;;;;;;11.15;70.48;95872.28;10364597;28;20739;-59
2022/03/29 11:12:38;;;;;;;51.90;30.35;;;;;;;12.44;67.92;95858.63;10365484;28;20225;-60
2022/03/29 11:17:40;;;;;;;49.67;28.70;;;;;;;13.04;64.03;95801.22;10354887;28;20204;-60
2022/03/29 11:22:43;;;;;;;43.47;26.10;;;;;;;13.36;63.68;95799.78;10348602;28;20580;-60
2022/03/29 11:27:43;;;;;;;44.55;27.95;;;;;;;13.53;63.40;95792.34;10341846;28;21544;-59
2022/03/29 11:32:45;;;;;;;41.13;25.95;;;;;;;13.65;63.37;95804.94;10339753;28;20229;-61
2022/03/29 11:37:46;;;;;;;44.97;28.98;;;;;;;12.47;65.33;95832.78;10333620;28;20204;-61
2022/03/29 11:42:53;;;;;;;38.20;24.58;;;;;;;12.91;64.85;95830.03;10343495;28;20707;-62
2022/03/29 11:47:58;;;;;;;33.80;24.08;;;;;;;13.49;63.11;95801.66;10341850;28;20652;-62
2022/03/29 11:52:58;;;;;;;38.95;24.15;;;;;;;14.02;60.95;95761.44;10342236;28;20270;-60
2022/03/29 11:57:59;;;;;;;34.97;24.42;;;;;;;13.79;60.07;95742.59;10342470;28;20272;-60
2022/03/29 12:02:59;;;;;;;44.35;25.58;;;;;;;13.37;60.82;95750.63;10393327;22;20245;-59
2022/03/29 12:08:02;;;;;;;35.22;23.02;;;;;;;14.11;58.60;95713.88;10364346;28;20193;-61
2022/03/29 12:13:03;;;;;;;37.92;24.08;;;;;;;12.69;62.42;95766.25;10363913;28;20293;-59
2022/03/29 12:23:24;;;;;;;35.97;23.17;;;;;;;13.81;57.51;95654.50;10362808;28;20204;-57
2022/03/29 12:28:25;;;;;;;40.55;25.08;;;;;;;14.38;56.99;95659.28;10359259;28;20235;-59
2022/03/29 12:33:26;;;;;;;35.95;24.55;;;;;;;15.18;56.23;95656.41;10363492;28;20256;-58
2022/03/29 12:38:26;;;;;;;35.25;24.17;;;;;;;15.87;52.34;95590.53;10362221;28;20779;-60
2022/03/29 12:43:27;;;;;;;38.22;23.67;;;;;;;15.43;52.87;95571.19;10362874;28;20185;-59
2022/03/29 12:48:28;;;;;;;38.95;22.45;;;;;;;15.36;51.89;95559.88;10362040;28;20197;-63
2022/03/29 12:53:29;;;;;;;35.78;23.25;;;;;;;14.83;52.48;95540.75;10362520;28;20213;-58
2022/03/29 12:58:35;;;;;;;35.25;23.92;;;;;;;15.31;52.85;95576.34;10363427;28;20280;-62
2022/03/29 13:03:37;;;;;;;38.70;24.23;;;;;;;15.70;51.55;95562.00;10362776;28;20588;-62
2022/03/29 13:08:37;;;;;;;40.50;25.30;;;;;;;14.35;54.21;95591.22;10362291;28;20202;-59
2022/03/29 13:13:40;;;;;;;37.03;23.50;;;;;;;16.00;49.77;95528.84;10368859;28;20217;-61
2022/03/29 13:18:52;;;;;;;34.92;23.00;;;;;;;16.06;48.30;95472.47;10370764;28;20198;-61
2022/03/29 13:24:12;;;;;;;38.03;23.60;;;;;;;16.03;48.64;95484.31;10370961;28;20791;-57
2022/03/29 13:29:13;;;;;;;35.25;22.08;;;;;;;15.62;48.46;95471.72;10370328;28;20730;-60
2022/03/29 13:34:15;;;;;;;42.85;24.88;;;;;;;14.93;50.10;95493.63;10370269;28;20642;-61
2022/03/29 13:39:16;;;;;;;44.40;26.35;;;;;;;15.11;51.95;95540.34;10368516;28;20218;-61
2022/03/29 13:44:16;;;;;;;40.35;25.88;;;;;;;14.43;53.47;95559.38;10369944;28;20554;-62
2022/03/29 13:49:16;;;;;;;49.35;26.23;;;;;;;14.71;51.77;95521.34;10369131;28;20213;-61
2022/03/29 13:54:17;;;;;;;47.10;28.02;;;;;;;14.59;52.50;95540.47;10369667;28;20275;-59
2022/03/29 13:59:17;;;;;;;46.20;28.92;;;;;;;14.46;51.94;95508.88;10366599;28;20308;-59
2022/03/29 14:04:17;;;;;;;47.20;28.13;;;;;;;14.57;53.47;95555.66;10367863;28;20216;-62
2022/03/29 14:09:18;;;;;;;47.28;26.95;;;;;;;15.33;50.48;95503.06;10367285;28;20569;-62
2022/03/29 14:14:18;;;;;;;49.33;29.95;;;;;;;13.78;53.21;95510.13;10365335;28;20724;-63
2022/03/29 14:19:18;;;;;;;43.90;29.02;;;;;;;14.70;52.18;95509.19;10366746;28;20807;-62
2022/03/29 14:24:19;;;;;;;47.35;28.83;;;;;;;15.16;51.53;95510.72;10364895;28;20275;-59
2022/03/29 14:29:19;;;;;;;49.92;30.88;;;;;;;14.43;53.52;95525.91;10365633;28;20224;-61
2022/03/29 14:34:19;;;;;;;49.95;30.17;;;;;;;14.20;54.09;95526.44;10366533;28;20296;-61
2022/03/29 14:39:20;;;;;;;53.80;32.42;;;;;;;14.52;53.84;95528.34;10367656;28;20228;-59
2022/03/29 14:44:21;;;;;;;49.20;31.75;;;;;;;14.21;54.80;95538.59;10366272;28;20217;-63
2022/03/29 14:49:21;;;;;;;55.47;33.30;;;;;;;13.68;55.40;95536.09;10367242;28;20209;-61
2022/03/29 14:54:22;;;;;;;50.55;31.67;;;;;;;14.00;54.71;95530.97;10366784;28;20233;-59
2022/03/29 14:59:22;;;;;;;50.53;31.23;;;;;;;13.74;55.23;95535.28;10365408;28;20240;-60
2022/03/29 15:04:22;;;;;;;52.35;30.05;;;;;;;13.82;55.06;95524.50;10366884;28;20206;-59
2022/03/29 15:09:23;;;;;;;47.85;29.23;;;;;;;13.78;54.99;95510.13;10365337;28;20300;-60
2022/03/29 15:14:23;;;;;;;54.15;30.15;;;;;;;13.76;55.05;95516.63;10365004;28;20248;-60
2022/03/29 15:19:23;;;;;;;52.92;28.95;;;;;;;12.66;57.78;95558.06;10365119;28;20225;-59
2022/03/29 15:24:24;;;;;;;52.92;31.42;;;;;;;12.71;58.13;95559.25;10366536;28;20272;-60
2022/03/29 15:29:25;;;;;;;54.83;29.25;;;;;;;11.82;59.82;95572.16;10364100;28;20271;-59
2022/03/29 15:34:32;;;;;;;51.28;28.00;;;;;;;11.97;59.94;95587.03;10364244;28;20220;-61
2022/03/29 15:39:35;;;;;;;50.88;28.70;;;;;;;11.96;61.19;95601.97;10364066;28;20209;-61
2022/03/29 15:44:36;;;;;;;49.80;30.15;;;;;;;11.74;61.21;95601.19;10362882;28;20220;-59
2022/03/29 15:49:37;;;;;;;45.33;27.23;;;;;;;11.98;59.84;95584.22;10364580;28;20205;-60
2022/03/29 15:54:38;;;;;;;46.20;27.35;;;;;;;11.60;61.71;95605.53;10365002;28;20228;-58
2022/03/29 15:59:41;;;;;;;42.67;26.77;;;;;;;11.71;61.36;95598.94;10365320;28;20616;-60
2022/03/29 16:04:41;;;;;;;44.57;24.77;;;;;;;11.48;61.35;95602.59;10368732;28;20193;-59
2022/03/29 16:09:41;;;;;;;43.78;26.73;;;;;;;11.13;62.77;95615.59;10368064;28;20224;-56
2022/03/29 16:14:42;;;;;;;40.43;24.87;;;;;;;10.87;62.56;95605.66;10368516;28;20304;-60
2022/03/29 16:19:42;;;;;;;44.27;24.60;;;;;;;10.71;62.60;95612.75;10367030;28;20225;-57
2022/03/29 16:24:43;;;;;;;46.90;26.40;;;;;;;10.18;65.12;95643.47;10367694;28;20185;-61
2022/03/29 16:29:44;;;;;;;45.97;25.63;;;;;;;10.29;65.52;95643.03;10368019;28;20217;-59
2022/03/29 16:34:44;;;;;;;41.87;24.87;;;;;;;9.82;66.88;95673.75;10367620;28;20232;-58
2022/03/29 16:39:45;;;;;;;47.23;25.87;;;;;;;9.80;67.07;95654.81;10368171;28;20217;-58
2022/03/29 16:44:46;;;;;;;44.60;26.37;;;;;;;9.49;68.35;95675.81;10367526;28;20558;-57
2022/03/29 16:49:46;;;;;;;45.17;27.20;;;;;;;9.35;69.72;95698.31;10374975;28;20216;-57
2022/03/29 16:54:47;;;;;;;53.87;27.33;;;;;;;9.20;70.44;95703.47;10370641;28;20626;-57
2022/03/29 16:59:47;;;;;;;46.40;26.20;;;;;;;8.78;70.81;95689.00;10372345;28;20291;-55
2022/03/29 17:04:47;;;;;;;50.23;26.07;;;;;;;8.65;71.81;95697.41;10373590;28;20596;-54
2022/03/29 17:09:48;;;;;;;45.97;25.77;;;;;;;8.37;72.33;95712.63;10372351;28;20324;-54
2022/03/29 17:14:48;;;;;;;49.63;25.57;;;;;;;8.21;73.56;95716.09;10374213;28;20698;-54
2022/03/29 17:19:49;;;;;;;49.37;25.00;;;;;;;8.00;74.39;95721.81;10372826;28;20591;-57
2022/03/29 17:24:50;;;;;;;53.53;26.80;;;;;;;7.84;75.87;95727.84;10373378;28;20189;-55
2022/03/29 17:29:50;;;;;;;53.53;26.07;;;;;;;7.56;76.50;95727.38;10374802;28;20236;-57
2022/03/29 17:34:51;;;;;;;53.97;26.33;;;;;;;6.96;78.92;95748.25;10373654;28;20296;-54
2022/03/29 17:39:51;;;;;;;51.50;25.57;;;;;;;6.72;80.11;95738.59;10374751;28;20224;-58
2022/03/29 17:44:52;;;;;;;48.30;23.93;;;;;;;6.69;80.02;95723.28;10374254;28;20182;-54
2022/03/29 17:49:52;;;;;;;48.93;25.03;;;;;;;6.24;80.75;95716.53;10374115;28;20284;-57
2022/03/29 17:54:52;;;;;;;46.40;23.97;;;;;;;5.74;84.49;95737.94;10374036;28;20221;-54
2022/03/29 17:59:53;;;;;;;47.90;23.47;;;;;;;5.60;86.37;95734.91;10392849;22;20232;-55
2022/03/29 18:04:57;;;;;;;52.33;24.60;;;;;;;5.02;91.75;95730.16;10371259;28;20185;-53
2022/03/29 18:09:57;;;;;;;60.47;26.90;;;;;;;4.73;97.72;95731.13;10373333;28;20210;-59
2022/03/29 18:14:58;;;;;;;54.43;27.43;;;;;;;4.64;100.00;95730.22;10372788;28;20209;-54
2022/03/29 18:19:58;;;;;;;58.77;25.17;;;;;;;4.99;100.00;95724.31;10372730;28;20754;-56
2022/03/29 18:24:59;;;;;;;48.77;23.73;;;;;;;4.98;100.00;95729.63;10372189;28;20660;-55
2022/03/29 18:30:00;;;;;;;56.97;25.07;;;;;;;4.83;100.00;95724.13;10372513;28;20332;-57
2022/03/29 18:35:01;;;;;;;50.07;24.10;;;;;;;4.85;100.00;95723.97;10372418;28;20411;-52
2022/03/29 18:40:01;;;;;;;50.43;23.37;;;;;;;4.64;100.00;95725.03;10371515;28;20275;-55
2022/03/29 18:45:03;;;;;;;47.57;23.90;;;;;;;4.43;100.00;95727.88;10369135;28;20193;-53
2022/03/29 18:50:08;;;;;;;48.20;23.30;;;;;;;4.42;100.00;95719.25;10370722;28;20224;-51
2022/03/29 18:55:08;;;;;;;47.70;23.53;;;;;;;4.29;100.00;95723.97;10370470;28;20316;-51
2022/03/29 19:00:14;;;;;;;53.07;24.67;;;;;;;4.09;100.00;95733.56;10370246;28;20316;-51
2022/03/29 19:05:14;;;;;;;57.23;24.47;;;;;;;4.06;100.00;95731.25;10370125;28;20664;-51
2022/03/29 19:10:16;;;;;;;60.37;25.23;;;;;;;3.92;100.00;95732.50;10369653;28;20366;-53
2022/03/29 19:15:18;;;;;;;56.17;25.73;;;;;;;3.83;100.00;95728.97;10369589;28;20235;-52
2022/03/29 19:20:18;;;;;;;52.97;24.17;;;;;;;3.79;100.00;95732.00;10369231;28;20220;-55
2022/03/29 19:25:20;;;;;;;56.83;23.57;;;;;;;3.71;100.00;95732.69;10369348;28;20196;-53
2022/03/29 19:30:20;;;;;;;52.77;24.37;;;;;;;3.65;100.00;95728.06;10369249;28;20714;-56
2022/03/29 19:35:24;;;;;;;56.57;26.37;;;;;;;3.67;100.00;95729.53;10369485;28;20236;-52
2022/03/29 19:40:24;;;;;;;54.67;25.40;;;;;;;3.58;100.00;95722.59;10369838;28;20228;-56
2022/03/29 19:45:25;;;;;;;62.67;28.53;;;;;;;3.56;100.00;95730.50;10369870;28;20193;-57
2022/03/29 19:50:25;;;;;;;65.33;27.80;;;;;;;3.48;100.00;95720.03;10369650;28;20243;-55
2022/03/29 19:55:25;;;;;;;59.03;27.17;;;;;;;3.45;100.00;95716.91;10369748;28;20308;-56
2022/03/29 20:00:31;;;;;;;66.43;27.53;;;;;;;3.41;100.00;95718.91;10368784;28;21083;-55
2022/03/29 20:05:31;;;;;;;61.50;27.03;;;;;;;3.34;100.00;95723.84;10368612;28;20197;-53
2022/03/29 20:10:32;;;;;;;61.90;26.10;;;;;;;3.42;100.00;95709.41;10368790;28;20208;-54
2022/03/29 20:15:33;;;;;;;60.40;26.90;;;;;;;3.35;100.00;95714.28;10368531;28;20219;-51
2022/03/29 20:20:36;;;;;;;65.90;29.33;;;;;;;3.28;100.00;95708.84;10369560;28;20621;-52
2022/03/29 20:25:37;;;;;;;62.50;26.27;;;;;;;3.37;100.00;95704.63;10377222;28;20235;-51
2022/03/29 20:30:37;;;;;;;71.97;28.03;;;;;;;3.34;100.00;95703.13;10376888;28;20289;-51
2022/03/29 20:35:38;;;;;;;53.87;23.40;;;;;;;3.34;100.00;95704.91;10359393;28;20237;-51
2022/03/29 20:40:39;;;;;;;62.00;26.07;;;;;;;3.31;100.00;95698.22;10374974;28;20216;-52
2022/03/29 20:45:39;;;;;;;65.50;28.13;;;;;;;3.29;100.00;95697.56;10371239;28;20251;-53
2022/03/29 20:50:40;;;;;;;64.53;26.00;;;;;;;3.29;100.00;95709.66;10370603;28;20769;-58
2022/03/29 20:55:40;;;;;;;69.73;28.63;;;;;;;3.36;100.00;95703.00;10368811;28;20233;-54
2022/03/29 21:00:41;;;;;;;62.77;25.57;;;;;;;3.30;100.00;95696.59;10369887;28;20813;-53
2022/03/29 21:05:41;;;;;;;69.23;29.80;;;;;;;3.32;100.00;95699.88;10375548;28;20276;-53
2022/03/29 21:10:43;;;;;;;62.27;25.97;;;;;;;3.31;100.00;95694.84;10376015;28;20233;-56
2022/03/29 21:15:43;;;;;;;69.97;28.77;;;;;;;3.36;100.00;95695.22;10376065;28;20232;-58
2022/03/29 21:20:45;;;;;;;75.23;30.60;;;;;;;3.31;100.00;95687.88;10374457;28;20216;-59
2022/03/29 21:25:46;;;;;;;63.63;26.57;;;;;;;3.32;100.00;95686.09;10373347;28;20199;-57
2022/03/29 21:30:46;;;;;;;70.40;27.63;;;;;;;3.30;100.00;95685.41;10375021;28;20221;-57
2022/03/29 21:35:48;;;;;;;60.20;24.73;;;;;;;3.32;100.00;95681.75;10375233;28;20300;-56
2022/03/29 21:40:50;;;;;;;78.43;29.07;;;;;;;3.40;100.00;95683.66;10375232;28;20212;-57
2022/03/29 21:45:53;;;;;;;75.53;32.20;;;;;;;3.44;100.00;95681.59;10374752;28;20263;-57
2022/03/29 21:50:53;;;;;;;80.60;31.93;;;;;;;3.52;100.00;95685.13;10374697;28;20594;-55
2022/03/29 21:56:12;;;;;;;86.20;31.57;;;;;;;3.55;100.00;95679.69;10374321;28;20225;-58
2022/03/29 22:01:32;;;;;;;82.17;34.47;;;;;;;3.54;100.00;95678.03;10374333;28;20232;-57
2022/03/29 22:06:51;;;;;;;77.40;34.37;;;;;;;3.49;100.00;95679.41;10374676;28;20600;-54
2022/03/29 22:11:52;;;;;;;79.13;34.23;;;;;;;3.42;100.00;95673.16;10373735;28;20217;-56
2022/03/29 22:16:52;;;;;;;77.70;33.63;;;;;;;3.49;100.00;95674.22;10373439;28;20201;-56
2022/03/29 22:21:52;;;;;;;89.20;33.90;;;;;;;3.51;100.00;95673.13;10355422;28;20213;-55
2022/03/29 22:26:53;;;;;;;81.03;37.83;;;;;;;3.52;100.00;95677.38;10373229;28;20707;-54
2022/03/29 22:31:54;;;;;;;93.53;37.90;;;;;;;3.52;100.00;95671.34;10372756;28;20720;-57
2022/03/29 22:36:54;;;;;;;86.23;35.97;;;;;;;3.37;100.00;95670.97;10373181;28;20197;-56
2022/03/29 22:41:54;;;;;;;85.13;35.67;;;;;;;3.18;100.00;95661.44;10372404;28;20671;-55
2022/03/29 22:46:55;;;;;;;89.57;37.77;;;;;;;3.12;100.00;95656.81;10372423;28;20612;-58
2022/03/29 22:51:55;;;;;;;90.10;38.37;;;;;;;3.03;100.00;95650.69;10371894;28;20748;-55
2022/03/29 23:02:15;;;;;;;91.80;37.23;;;;;;;2.94;100.00;95649.75;10371565;28;20599;-56
2022/03/29 23:07:16;;;;;;;98.60;37.93;;;;;;;2.79;100.00;95646.72;10372005;28;20195;-57